createdAt,value
2024-03-26T00:04:21.646Z,99.64
2024-03-26T00:09:23.117Z,100.00
2024-03-26T00:14:23.964Z,100.00
2024-03-26T00:19:24.836Z,100.00
2024-03-26T00:24:25.636Z,100.00
2024-03-26T00:29:26.473Z,100.00
2024-03-26T00:34:28.024Z,100.00
2024-03-26T00:39:29.832Z,100.00
2024-03-26T00:44:30.629Z,100.00
2024-03-26T00:49:31.406Z,100.00
2024-03-26T00:54:32.204Z,100.00
2024-03-26T00:59:32.983Z,100.00
2024-03-26T01:04:33.882Z,100.00
2024-03-26T01:09:34.731Z,100.00
2024-03-26T01:14:35.610Z,100.00
2024-03-26T01:19:36.367Z,100.00
2024-03-26T01:24:37.395Z,100.00
2024-03-26T01:29:38.138Z,100.00
2024-03-26T01:34:39.094Z,100.00
2024-03-26T01:39:39.858Z,100.00
2024-03-26T01:44:40.711Z,100.00
2024-03-26T01:49:42.004Z,100.00
2024-03-26T01:54:44.360Z,100.00
2024-03-26T01:59:45.651Z,100.00
2024-03-26T02:04:46.822Z,100.00
2024-03-26T02:09:48.026Z,100.00
2024-03-26T02:14:49.008Z,100.00
2024-03-26T02:19:49.914Z,100.00
2024-03-26T02:24:50.686Z,100.00
2024-03-26T02:29:51.568Z,100.00
2024-03-26T02:34:53.432Z,100.00
2024-03-26T02:39:54.201Z,100.00
2024-03-26T02:44:55.025Z,100.00
2024-03-26T02:49:55.866Z,100.00
2024-03-26T02:54:56.767Z,100.00
2024-03-26T02:59:57.571Z,100.00
2024-03-26T03:04:58.475Z,100.00
2024-03-26T03:09:59.289Z,100.00
2024-03-26T03:15:00.219Z,100.00
2024-03-26T03:20:01.203Z,100.00
2024-03-26T03:25:02.482Z,100.00
2024-03-26T03:30:04.932Z,100.00
2024-03-26T03:35:05.996Z,100.00
2024-03-26T03:40:07.526Z,100.00
2024-03-26T03:45:08.508Z,100.00
2024-03-26T03:50:09.477Z,100.00
2024-03-26T03:55:10.238Z,100.00
2024-03-26T04:00:11.932Z,100.00
2024-03-26T04:05:12.772Z,100.00
2024-03-26T04:10:13.602Z,100.00
2024-03-26T04:15:14.745Z,100.00
2024-03-26T04:20:15.545Z,100.00
2024-03-26T04:25:16.382Z,100.00
2024-03-26T04:30:17.559Z,100.00
2024-03-26T04:35:18.706Z,100.00
2024-03-26T04:40:19.498Z,100.00
2024-03-26T04:45:23.421Z,100.00
2024-03-26T04:50:24.452Z,100.00
2024-03-26T04:55:25.267Z,100.00
2024-03-26T05:00:26.034Z,100.00
2024-03-26T05:05:27.017Z,100.00
2024-03-26T05:10:27.791Z,100.00
2024-03-26T05:15:28.593Z,100.00
2024-03-26T05:20:29.391Z,100.00
2024-03-26T05:25:30.661Z,100.00
2024-03-26T05:30:31.456Z,100.00
2024-03-26T05:35:32.535Z,100.00
2024-03-26T05:40:33.338Z,100.00
2024-03-26T05:45:36.092Z,100.00
2024-03-26T05:50:36.899Z,100.00
2024-03-26T05:55:37.707Z,100.00
2024-03-26T06:00:38.482Z,100.00
2024-03-26T06:05:40.706Z,100.00
2024-03-26T06:10:41.621Z,100.00
2024-03-26T06:15:42.474Z,100.00
2024-03-26T06:20:43.242Z,100.00
2024-03-26T06:25:44.030Z,100.00
2024-03-26T06:30:45.559Z,100.00
2024-03-26T06:35:47.134Z,100.00
2024-03-26T06:40:48.434Z,100.00
2024-03-26T06:45:49.258Z,100.00
2024-03-26T06:50:50.832Z,100.00
2024-03-26T06:55:51.642Z,100.00
2024-03-26T07:00:52.421Z,100.00
2024-03-26T07:05:53.425Z,100.00
2024-03-26T07:10:56.315Z,100.00
2024-03-26T07:15:57.875Z,100.00
2024-03-26T07:20:59.041Z,100.00
2024-03-26T07:25:59.857Z,100.00
2024-03-26T07:31:00.710Z,100.00
2024-03-26T07:36:01.853Z,100.00
2024-03-26T07:41:02.797Z,100.00
2024-03-26T07:46:03.838Z,100.00
2024-03-26T07:51:04.958Z,100.00
2024-03-26T07:56:07.262Z,100.00
2024-03-26T08:01:08.057Z,100.00
2024-03-26T08:06:09.083Z,100.00
2024-03-26T08:11:13.533Z,100.00
2024-03-26T08:16:14.336Z,100.00
2024-03-26T08:21:15.894Z,100.00
2024-03-26T08:26:16.696Z,100.00
2024-03-26T08:31:18.218Z,100.00
2024-03-26T08:36:19.122Z,100.00
2024-03-26T08:41:20.208Z,100.00
2024-03-26T08:46:21.405Z,100.00
2024-03-26T08:51:28.303Z,100.00
2024-03-26T08:56:29.131Z,100.00
2024-03-26T09:01:30.419Z,100.00
2024-03-26T09:06:31.291Z,100.00
2024-03-26T09:11:32.114Z,100.00
2024-03-26T09:16:32.903Z,100.00
2024-03-26T09:21:33.745Z,100.00
2024-03-26T09:26:34.582Z,100.00
2024-03-26T09:31:35.389Z,100.00
2024-03-26T09:36:37.917Z,100.00
2024-03-26T09:41:40.113Z,100.00
2024-03-26T09:46:43.196Z,100.00
2024-03-26T09:51:43.953Z,100.00
2024-03-26T09:56:45.113Z,100.00
2024-03-26T10:01:47.874Z,100.00
2024-03-26T10:06:48.978Z,100.00
2024-03-26T10:11:50.172Z,100.00
2024-03-26T10:16:50.962Z,100.00
2024-03-26T10:21:53.553Z,100.00
2024-03-26T10:26:54.758Z,100.00
2024-03-26T10:31:55.780Z,100.00
2024-03-26T10:36:58.893Z,100.00
2024-03-26T10:42:01.033Z,96.73
2024-03-26T10:47:03.330Z,97.30
2024-03-26T10:52:08.003Z,93.79
2024-03-26T10:57:11.995Z,94.81
2024-03-26T11:02:13.830Z,100.00
2024-03-26T11:07:14.715Z,100.00
2024-03-26T11:12:21.465Z,100.00
2024-03-26T11:17:24.930Z,100.00
2024-03-26T11:22:25.696Z,96.37
2024-03-26T11:27:26.642Z,97.83
2024-03-26T11:32:33.419Z,95.78
2024-03-26T11:37:34.640Z,100.00
2024-03-26T11:42:37.374Z,98.11
2024-03-26T11:47:38.689Z,94.97
2024-03-26T11:52:39.716Z,82.35
2024-03-26T11:57:44.004Z,78.24
2024-03-26T12:02:45.157Z,80.78
2024-03-26T12:07:46.318Z,79.42
2024-03-26T12:12:47.949Z,74.71
2024-03-26T12:17:48.746Z,77.76
2024-03-26T12:22:49.557Z,80.25
2024-03-26T12:27:51.316Z,75.14
2024-03-26T12:32:59.194Z,76.06
2024-03-26T12:38:00.324Z,70.44
2024-03-26T12:43:01.662Z,69.18
2024-03-26T12:48:02.768Z,73.99
2024-03-26T12:53:04.881Z,82.28
2024-03-26T12:58:05.696Z,74.29
2024-03-26T13:03:08.925Z,72.02
2024-03-26T13:08:10.048Z,67.50
2024-03-26T13:13:10.911Z,60.66
2024-03-26T13:18:11.867Z,70.88
2024-03-26T13:23:12.703Z,70.39
2024-03-26T13:28:13.528Z,60.19
2024-03-26T13:33:14.329Z,61.94
2024-03-26T13:38:15.192Z,61.19
2024-03-26T13:43:16.333Z,57.70
2024-03-26T13:48:18.688Z,60.03
2024-03-26T13:53:19.533Z,58.44
2024-03-26T13:58:20.956Z,59.72
2024-03-26T14:03:21.789Z,54.86
2024-03-26T14:08:22.837Z,55.04
2024-03-26T14:13:23.613Z,56.33
2024-03-26T14:18:24.408Z,55.31
2024-03-26T14:23:25.265Z,57.63
2024-03-26T14:28:26.106Z,59.31
2024-03-26T14:33:26.912Z,58.85
2024-03-26T14:38:29.413Z,61.67
2024-03-26T14:43:30.316Z,60.42
2024-03-26T14:48:31.149Z,55.95
2024-03-26T14:53:32.114Z,57.69
2024-03-26T14:58:33.058Z,55.77
2024-03-26T15:03:33.828Z,56.36
2024-03-26T15:08:34.749Z,54.61
2024-03-26T15:13:35.541Z,55.31
2024-03-26T15:18:36.437Z,56.45
2024-03-26T15:23:37.222Z,56.47
2024-03-26T15:28:56.365Z,55.96
2024-03-26T15:33:57.148Z,59.51
2024-03-26T15:38:58.136Z,60.33
2024-03-26T15:43:58.974Z,62.14
2024-03-26T15:49:00.984Z,64.21
2024-03-26T15:54:02.223Z,59.83
2024-03-26T15:59:03.413Z,57.24
2024-03-26T16:04:06.118Z,53.58
2024-03-26T16:09:08.118Z,56.91
2024-03-26T16:14:08.975Z,58.65
2024-03-26T16:19:09.788Z,55.96
2024-03-26T16:24:10.596Z,57.94
2024-03-26T16:29:11.463Z,57.17
2024-03-26T16:34:12.246Z,56.77
2024-03-26T16:39:14.750Z,57.78
2024-03-26T16:44:17.403Z,53.89
2024-03-26T16:49:18.190Z,55.02
2024-03-26T16:54:19.052Z,56.12
2024-03-26T16:59:19.865Z,56.76
2024-03-26T17:04:20.682Z,57.14
2024-03-26T17:09:21.625Z,59.01
2024-03-26T17:14:22.481Z,60.33
2024-03-26T17:19:23.253Z,61.74
2024-03-26T17:24:24.063Z,64.36
2024-03-26T17:29:24.892Z,66.38
2024-03-26T17:34:25.803Z,67.92
2024-03-26T17:39:26.717Z,67.59
2024-03-26T17:44:27.551Z,67.25
2024-03-26T17:49:30.011Z,68.16
2024-03-26T17:54:30.774Z,68.85
2024-03-26T17:59:31.674Z,68.84
2024-03-26T18:04:33.138Z,70.39
2024-03-26T18:09:38.433Z,71.53
2024-03-26T18:14:39.479Z,72.84
2024-03-26T18:19:40.293Z,72.96
2024-03-26T18:24:42.042Z,74.12
2024-03-26T18:29:43.674Z,75.97
2024-03-26T18:34:44.526Z,78.03
2024-03-26T18:39:45.501Z,79.43
2024-03-26T18:44:46.866Z,78.10
2024-03-26T18:49:47.938Z,76.86
2024-03-26T18:54:49.646Z,82.31
2024-03-26T18:59:50.506Z,87.09
2024-03-26T19:04:51.307Z,94.74
2024-03-26T19:09:52.316Z,99.04
2024-03-26T19:14:53.131Z,91.66
2024-03-26T19:19:53.945Z,91.04
2024-03-26T19:24:55.276Z,87.49
2024-03-26T19:29:56.089Z,84.41
2024-03-26T19:34:57.004Z,85.07
2024-03-26T19:39:57.987Z,83.21
2024-03-26T19:44:59.190Z,87.14
2024-03-26T19:50:00.957Z,86.35
2024-03-26T19:55:05.023Z,83.37
2024-03-26T20:00:08.156Z,83.67
2024-03-26T20:05:09.009Z,82.45
2024-03-26T20:10:10.232Z,81.43
2024-03-26T20:15:11.907Z,86.70
2024-03-26T20:20:15.455Z,85.54
2024-03-26T20:25:16.670Z,82.80
2024-03-26T20:30:17.561Z,83.58
2024-03-26T20:35:18.790Z,83.76
2024-03-26T20:40:19.887Z,86.84
2024-03-26T20:45:20.726Z,96.43
2024-03-26T20:50:21.663Z,98.80
2024-03-26T20:55:22.679Z,100.00
2024-03-26T21:00:23.477Z,100.00
2024-03-26T21:05:27.338Z,100.00
2024-03-26T21:10:32.541Z,100.00
2024-03-26T21:15:33.379Z,100.00
2024-03-26T21:20:40.477Z,100.00
2024-03-26T21:25:41.462Z,100.00
2024-03-26T21:30:42.388Z,100.00
2024-03-26T21:35:43.161Z,100.00
2024-03-26T21:40:45.723Z,100.00
2024-03-26T21:45:46.615Z,100.00
2024-03-26T21:51:02.200Z,100.00
2024-03-26T21:56:07.228Z,100.00
2024-03-26T22:01:13.528Z,100.00
2024-03-26T22:06:15.074Z,100.00
2024-03-26T22:11:16.165Z,100.00
2024-03-26T22:16:17.307Z,100.00
2024-03-26T22:21:18.948Z,100.00
2024-03-26T22:26:19.997Z,100.00
2024-03-26T22:31:20.870Z,100.00
2024-03-26T22:36:21.711Z,100.00
2024-03-26T22:41:22.735Z,100.00
2024-03-26T22:46:23.598Z,100.00
2024-03-26T22:51:24.490Z,100.00
2024-03-26T22:56:25.329Z,100.00
2024-03-26T23:01:26.212Z,100.00
2024-03-26T23:06:27.093Z,100.00
2024-03-26T23:11:29.544Z,100.00
2024-03-26T23:16:30.575Z,100.00
2024-03-26T23:21:31.471Z,100.00
2024-03-26T23:26:32.364Z,99.41
2024-03-26T23:31:33.718Z,100.00
2024-03-26T23:36:34.569Z,100.00
2024-03-26T23:41:35.615Z,100.00
2024-03-26T23:46:36.457Z,100.00
2024-03-26T23:51:37.378Z,96.98
2024-03-26T23:56:38.987Z,100.00
